Time;durP1;ratioP1;P1;durP2;ratioP2;P2;SDS_P1;SDS_P2;PMS_P1;PMS_P2;Temp;Humidity;BMP_temperature;BMP_pressure;BME280_temperature;BME280_humidity;BME280_pressure;Samples;Min_cycle;Max_cycle;Signal;HPM_P1;HPM_P2
2023/10/18 00:01:30;;;;;;;8.98;3.28;;;11.10;99.90;;;;;;5092930;28;20048;-60
2023/10/18 00:03:57;;;;;;;10.15;2.83;;;11.10;99.90;;;;;;5092902;28;20097;-58
2023/10/18 00:06:26;;;;;;;9.10;3.30;;;11.10;99.90;;;;;;5093050;28;20044;-58
2023/10/18 00:09:32;;;;;;;8.52;2.80;;;11.10;99.90;;;;;;5093131;28;20131;-55
2023/10/18 00:11:46;;;;;;;9.60;3.15;;;11.10;99.90;;;;;;5092529;28;20372;-59
2023/10/18 00:14:12;;;;;;;12.15;3.33;;;11.10;99.90;;;;;;5093370;28;20032;-57
2023/10/18 00:16:40;;;;;;;10.55;3.65;;;11.10;99.90;;;;;;5097170;28;20044;-53
2023/10/18 00:19:06;;;;;;;8.55;3.13;;;11.10;99.90;;;;;;5096742;28;20079;-57
2023/10/18 00:21:34;;;;;;;9.63;3.40;;;11.10;99.90;;;;;;5096929;28;20109;-58
2023/10/18 00:24:01;;;;;;;11.25;3.30;;;11.10;99.90;;;;;;5096789;28;20066;-59
2023/10/18 00:26:28;;;;;;;9.00;3.25;;;11.10;99.90;;;;;;5095377;28;20044;-58
2023/10/18 00:28:56;;;;;;;12.15;3.85;;;11.10;99.90;;;;;;5096616;28;20044;-59
2023/10/18 00:31:27;;;;;;;8.32;3.55;;;11.10;99.90;;;;;;5095288;28;20040;-59
2023/10/18 00:33:54;;;;;;;7.00;3.50;;;11.10;99.90;;;;;;5078487;28;20502;-57
2023/10/18 00:36:21;;;;;;;10.43;3.65;;;11.10;99.90;;;;;;5095430;28;20047;-57
2023/10/18 00:38:48;;;;;;;13.75;3.40;;;11.10;99.90;;;;;;5096452;28;20459;-55
2023/10/18 00:41:22;;;;;;;7.88;3.00;;;11.10;99.90;;;;;;5095372;28;20040;-56
2023/10/18 00:43:52;;;;;;;7.35;3.17;;;11.20;99.90;;;;;;5096130;28;20040;-55
2023/10/18 00:46:21;;;;;;;11.82;3.72;;;11.10;99.90;;;;;;5096243;28;20119;-56
2023/10/18 00:48:48;;;;;;;10.23;3.58;;;11.10;99.90;;;;;;5094579;28;20363;-54
2023/10/18 00:51:19;;;;;;;9.45;3.58;;;11.20;99.90;;;;;;5095477;28;20075;-59
2023/10/18 00:53:46;;;;;;;10.32;3.60;;;11.10;99.90;;;;;;5094803;28;20089;-58
2023/10/18 00:56:15;;;;;;;8.13;3.63;;;11.20;99.90;;;;;;5094757;28;20043;-55
2023/10/18 00:58:44;;;;;;;9.27;3.95;;;11.20;99.90;;;;;;5095592;28;20116;-57
2023/10/18 01:01:10;;;;;;;11.75;3.80;;;11.20;99.90;;;;;;5095922;28;20046;-60
2023/10/18 01:03:42;;;;;;;11.07;4.10;;;11.20;99.90;;;;;;5094531;28;20067;-59
2023/10/18 01:06:17;;;;;;;10.32;3.47;;;11.20;99.90;;;;;;5095874;28;20404;-57
2023/10/18 01:08:46;;;;;;;9.98;4.28;;;11.10;99.90;;;;;;5095698;28;20050;-58
2023/10/18 01:11:12;;;;;;;7.78;3.72;;;11.20;99.90;;;;;;5095813;28;20437;-58
2023/10/18 01:13:43;;;;;;;11.10;4.10;;;11.20;99.90;;;;;;5095975;28;20090;-59
2023/10/18 01:16:21;;;;;;;7.75;3.60;;;11.20;99.90;;;;;;5094445;28;20101;-56
2023/10/18 01:18:49;;;;;;;7.85;3.30;;;11.20;99.90;;;;;;5095653;28;20122;-59
2023/10/18 01:21:17;;;;;;;7.35;3.47;;;11.20;99.90;;;;;;5095492;28;20483;-56
2023/10/18 01:23:49;;;;;;;8.65;3.75;;;11.20;99.90;;;;;;5094471;28;20533;-58
2023/10/18 01:26:16;;;;;;;11.38;4.18;;;11.20;99.90;;;;;;5092449;28;20041;-57
2023/10/18 01:28:42;;;;;;;8.77;3.63;;;11.20;99.90;;;;;;5094427;28;20043;-58
2023/10/18 01:31:12;;;;;;;10.10;4.25;;;11.20;99.90;;;;;;5095779;28;20090;-59
2023/10/18 01:33:40;;;;;;;8.50;3.83;;;11.10;99.90;;;;;;5095443;28;20093;-59
2023/10/18 01:36:11;;;;;;;9.07;3.97;;;11.10;99.90;;;;;;5095473;28;20036;-58
2023/10/18 01:38:38;;;;;;;13.63;3.92;;;11.10;99.90;;;;;;5094398;28;20450;-56
2023/10/18 01:41:09;;;;;;;10.75;4.25;;;11.10;99.90;;;;;;5094964;28;20120;-58
2023/10/18 01:43:36;;;;;;;11.73;4.30;;;11.10;99.90;;;;;;5094946;28;20527;-56
2023/10/18 01:46:08;;;;;;;11.05;4.07;;;11.10;99.90;;;;;;5095328;28;20047;-57
2023/10/18 01:48:37;;;;;;;11.80;3.97;;;11.00;99.90;;;;;;5093861;28;20047;-57
2023/10/18 01:51:06;;;;;;;9.02;4.50;;;11.00;99.90;;;;;;5094949;28;20047;-57
2023/10/18 01:53:33;;;;;;;10.35;3.92;;;11.00;99.90;;;;;;5094858;28;20042;-55
2023/10/18 01:56:01;;;;;;;10.45;4.10;;;11.00;99.90;;;;;;5093692;28;20040;-57
2023/10/18 06:18:30;;;;;;;15.55;4.97;;;10.80;99.90;;;;;;4914789;29;20451;-58
2023/10/18 06:21:06;;;;;;;10.02;5.03;;;10.80;99.90;;;;;;4937636;29;20036;-56
2023/10/18 06:26:08;;;;;;;17.05;5.60;;;10.90;99.90;;;;;;4936776;29;20050;-54
2023/10/18 06:28:37;;;;;;;12.25;5.53;;;10.90;99.90;;;;;;4936537;29;20044;-59
2023/10/18 06:31:04;;;;;;;10.40;4.85;;;10.90;99.90;;;;;;4932308;29;20479;-55
2023/10/18 06:34:04;;;;;;;;;;;10.90;99.90;;;;;;5109415;27;20423;-61
2023/10/18 06:36:34;;;;;;;10.25;4.72;;;10.90;99.90;;;;;;5094531;28;19928;-60
2023/10/18 06:39:04;;;;;;;10.82;4.72;;;11.00;99.90;;;;;;5086518;28;20037;-60
2023/10/18 06:41:31;;;;;;;10.73;4.30;;;10.90;99.90;;;;;;5089734;28;20433;-63
2023/10/18 06:43:58;;;;;;;13.68;5.32;;;11.00;99.90;;;;;;5091199;28;20040;-60
2023/10/18 06:46:30;;;;;;;9.98;4.93;;;11.00;99.90;;;;;;5089899;28;20418;-56
2023/10/18 06:49:00;;;;;;;16.90;5.10;;;11.00;99.90;;;;;;5089864;28;20141;-57
2023/10/18 06:51:40;;;;;;;9.68;4.93;;;11.00;99.90;;;;;;5089722;28;20102;-61
2023/10/18 06:54:14;;;;;;;10.15;5.05;;;11.00;99.90;;;;;;5088571;28;20036;-60
2023/10/18 06:56:45;;;;;;;11.90;5.13;;;11.10;99.90;;;;;;5094244;28;20082;-62
2023/10/18 06:59:13;;;;;;;11.90;5.15;;;11.10;99.90;;;;;;5090043;28;20126;-61
2023/10/18 07:01:58;;;;;;;14.52;5.05;;;11.10;99.90;;;;;;5090024;28;20052;-59
2023/10/18 07:04:29;;;;;;;16.15;5.03;;;11.20;99.90;;;;;;5089454;28;20071;-61
2023/10/18 07:06:57;;;;;;;11.38;5.50;;;11.20;99.90;;;;;;5089843;28;20044;-60
2023/10/18 07:09:31;;;;;;;14.98;5.35;;;11.20;99.90;;;;;;5089309;28;20036;-58
2023/10/18 07:12:03;;;;;;;10.98;4.90;;;11.30;99.90;;;;;;5089675;28;20079;-63
2023/10/18 07:14:31;;;;;;;9.23;4.75;;;11.30;99.90;;;;;;5089716;28;20036;-59
2023/10/18 07:17:01;;;;;;;12.07;4.93;;;11.30;99.90;;;;;;5089736;28;20040;-59
2023/10/18 07:19:33;;;;;;;11.00;5.30;;;11.40;99.90;;;;;;5089108;28;20394;-58
2023/10/18 07:22:06;;;;;;;10.40;4.70;;;11.40;99.90;;;;;;5089327;28;20090;-57
2023/10/18 07:24:36;;;;;;;11.75;5.00;;;11.40;99.90;;;;;;5089075;28;20039;-62
2023/10/18 07:27:03;;;;;;;12.38;5.43;;;11.40;99.90;;;;;;5091653;28;20040;-62
2023/10/18 07:29:32;;;;;;;13.63;5.00;;;11.40;99.90;;;;;;5088553;28;20491;-62
2023/10/18 07:31:59;;;;;;;9.48;5.13;;;11.50;99.90;;;;;;5087526;28;20056;-59
2023/10/18 07:34:31;;;;;;;11.30;5.72;;;11.50;99.90;;;;;;5089185;28;20146;-62
2023/10/18 07:37:16;;;;;;;10.52;4.70;;;11.50;99.90;;;;;;5082755;28;20051;-57
2023/10/18 07:39:48;;;;;;;12.15;5.05;;;11.60;99.90;;;;;;5084752;28;20090;-62
2023/10/18 07:42:19;;;;;;;11.55;4.60;;;11.60;99.90;;;;;;5087531;28;20483;-57
2023/10/18 07:44:46;;;;;;;12.18;5.13;;;11.60;99.90;;;;;;5079096;28;20090;-60
2023/10/18 07:47:18;;;;;;;11.77;5.72;;;11.70;99.90;;;;;;5075420;28;20044;-59
2023/10/18 07:49:45;;;;;;;11.30;5.60;;;11.70;99.90;;;;;;5074229;28;20091;-62
2023/10/18 07:52:13;;;;;;;15.98;6.28;;;11.70;99.90;;;;;;5074817;28;20044;-61
2023/10/18 07:54:40;;;;;;;18.33;6.03;;;11.70;99.90;;;;;;5075230;28;20036;-58
2023/10/18 07:57:15;;;;;;;10.70;5.07;;;11.80;99.90;;;;;;5075319;28;20478;-59
2023/10/18 07:59:45;;;;;;;10.40;4.65;;;11.80;99.90;;;;;;5075126;28;20036;-60
2023/10/18 08:02:12;;;;;;;11.30;5.70;;;11.90;99.90;;;;;;5074834;28;20063;-61
2023/10/18 08:04:40;;;;;;;13.63;5.28;;;11.90;99.90;;;;;;5075126;28;20101;-60
2023/10/18 08:07:10;;;;;;;8.13;4.90;;;11.90;99.90;;;;;;5073717;28;20063;-59
2023/10/18 08:09:41;;;;;;;12.65;5.53;;;12.00;99.90;;;;;;5073989;28;20058;-59
2023/10/18 08:12:18;;;;;;;12.73;5.90;;;12.00;99.90;;;;;;5074663;28;20127;-57
2023/10/18 08:14:47;;;;;;;11.77;5.00;;;12.10;99.90;;;;;;5074760;28;20445;-60
2023/10/18 08:17:30;;;;;;;10.68;4.82;;;12.10;99.90;;;;;;5074913;28;20040;-57
2023/10/18 08:19:58;;;;;;;9.55;4.82;;;12.10;99.90;;;;;;5074624;28;20052;-59
2023/10/18 08:22:27;;;;;;;15.38;5.63;;;12.20;99.90;;;;;;5074661;28;20047;-58
2023/10/18 08:24:54;;;;;;;12.88;5.20;;;12.20;99.90;;;;;;5074659;28;20095;-60
2023/10/18 08:27:21;;;;;;;14.90;5.75;;;12.20;99.90;;;;;;5074377;28;20045;-62
2023/10/18 08:29:52;;;;;;;9.05;4.93;;;12.30;99.90;;;;;;5074185;28;20049;-57
2023/10/18 08:32:29;;;;;;;9.63;4.88;;;12.30;99.90;;;;;;5074104;28;20049;-59
2023/10/18 08:35:06;;;;;;;12.88;5.30;;;12.30;99.90;;;;;;5074463;28;20063;-55
2023/10/18 08:37:32;;;;;;;9.25;5.50;;;12.30;99.90;;;;;;5078102;28;20043;-61
2023/10/18 08:39:59;;;;;;;9.30;5.88;;;12.30;99.90;;;;;;5074695;28;20394;-57
2023/10/18 08:42:30;;;;;;;12.48;5.20;;;12.40;99.90;;;;;;5074003;28;20064;-59
2023/10/18 08:44:56;;;;;;;13.70;5.80;;;12.40;99.90;;;;;;5074160;28;20036;-56
2023/10/18 08:47:24;;;;;;;11.98;5.82;;;12.40;99.90;;;;;;5073020;28;20426;-63
2023/10/18 08:49:51;;;;;;;13.40;6.05;;;12.40;99.90;;;;;;5074140;28;20043;-56
2023/10/18 08:52:21;;;;;;;12.38;5.38;;;12.40;99.90;;;;;;5073944;28;20043;-60
2023/10/18 08:54:48;;;;;;;9.75;5.05;;;12.40;99.90;;;;;;5073896;28;20052;-61
2023/10/18 08:57:24;;;;;;;12.23;6.68;;;12.50;99.90;;;;;;5073296;28;20040;-58
2023/10/18 08:59:51;;;;;;;11.18;6.57;;;12.50;99.90;;;;;;5074013;28;20045;-60
2023/10/18 09:02:18;;;;;;;12.80;5.82;;;12.50;99.90;;;;;;5074091;28;20033;-61
2023/10/18 09:04:45;;;;;;;14.35;6.10;;;12.50;99.90;;;;;;5073821;28;20038;-59
2023/10/18 09:07:21;;;;;;;11.35;5.88;;;12.50;99.90;;;;;;5073726;28;20375;-58
2023/10/18 09:09:55;;;;;;;9.65;5.57;;;12.50;99.90;;;;;;5073934;28;20045;-58
2023/10/18 09:12:32;;;;;;;11.88;6.47;;;12.50;99.90;;;;;;5073775;28;20115;-61
2023/10/18 09:14:59;;;;;;;12.57;5.97;;;12.50;99.90;;;;;;5073452;28;20053;-59
2023/10/18 09:17:26;;;;;;;11.15;5.45;;;12.60;99.90;;;;;;5073508;28;20149;-60
2023/10/18 09:19:53;;;;;;;11.60;5.68;;;12.60;99.90;;;;;;5073428;28;20036;-58
2023/10/18 09:22:20;;;;;;;11.00;5.88;;;12.60;99.90;;;;;;5073396;28;20039;-55
2023/10/18 09:24:47;;;;;;;14.80;5.82;;;12.60;99.90;;;;;;5073188;28;20064;-57
2023/10/18 09:27:14;;;;;;;10.68;5.50;;;12.70;99.90;;;;;;5073025;28;20115;-59
2023/10/18 09:29:42;;;;;;;10.38;5.57;;;12.80;99.90;;;;;;5072762;28;20037;-60
2023/10/18 09:32:32;;;;;;;8.70;5.30;;;12.80;99.90;;;;;;5072975;28;20044;-58
2023/10/18 09:34:58;;;;;;;8.93;5.43;;;12.90;99.90;;;;;;5073199;28;20089;-57
2023/10/18 09:37:25;;;;;;;10.30;5.65;;;12.90;99.90;;;;;;5075856;28;20048;-61
2023/10/18 09:39:56;;;;;;;11.15;6.15;;;13.00;99.90;;;;;;5073240;28;20082;-55
2023/10/18 09:42:23;;;;;;;10.48;5.78;;;13.00;99.90;;;;;;5066869;28;20051;-60
2023/10/18 09:44:50;;;;;;;12.65;5.47;;;13.00;99.90;;;;;;5066469;28;20106;-60
2023/10/18 09:47:17;;;;;;;12.32;6.20;;;13.10;99.90;;;;;;5071523;28;20040;-60
2023/10/18 09:49:44;;;;;;;8.05;5.60;;;13.10;99.90;;;;;;5066500;28;20508;-55
2023/10/18 09:52:12;;;;;;;9.60;5.88;;;13.10;99.90;;;;;;5072870;28;20383;-61
2023/10/18 09:54:39;;;;;;;11.80;5.70;;;13.20;99.90;;;;;;5072591;28;20494;-57
2023/10/18 09:57:06;;;;;;;11.27;6.05;;;13.20;99.90;;;;;;5072810;28;20359;-60
2023/10/18 09:59:37;;;;;;;16.55;6.43;;;13.20;99.90;;;;;;5072936;28;20044;-61
2023/10/18 10:02:07;;;;;;;14.35;6.32;;;13.20;99.90;;;;;;5070362;28;20032;-57
2023/10/18 10:04:35;;;;;;;11.43;6.15;;;13.10;99.90;;;;;;5066776;28;20053;-60
2023/10/18 10:09:48;;;;;;;;;;;13.20;99.90;;;;;;5069549;28;20049;-59
2023/10/18 10:12:14;;;;;;;10.80;5.95;;;13.20;99.90;;;;;;5072875;28;19928;-59
2023/10/18 10:14:41;;;;;;;13.23;6.38;;;13.20;99.90;;;;;;5072744;28;20046;-59
2023/10/18 10:17:08;;;;;;;14.38;6.28;;;13.20;99.90;;;;;;5072737;28;20475;-59
2023/10/18 10:19:35;;;;;;;15.30;6.45;;;13.20;99.90;;;;;;5072216;28;20415;-61
2023/10/18 10:22:05;;;;;;;14.25;6.55;;;13.20;99.90;;;;;;5072984;28;20037;-58
2023/10/18 10:24:33;;;;;;;14.13;6.05;;;13.20;99.90;;;;;;5072767;28;20817;-59
2023/10/18 10:27:00;;;;;;;12.70;6.13;;;13.30;99.90;;;;;;5072556;28;20090;-60
2023/10/18 10:31:55;;;;;;;10.07;5.85;;;13.40;99.90;;;;;;5072456;28;20062;-59
2023/10/18 10:34:26;;;;;;;15.15;5.93;;;13.40;99.90;;;;;;5072623;28;20111;-58
2023/10/18 10:36:53;;;;;;;11.27;5.82;;;13.50;99.90;;;;;;5072305;28;20367;-58
2023/10/18 10:39:21;;;;;;;11.98;6.18;;;13.50;99.90;;;;;;5073940;28;20376;-60
2023/10/18 10:41:48;;;;;;;10.00;6.00;;;13.50;99.90;;;;;;5072730;28;20040;-58
2023/10/18 10:44:23;;;;;;;13.15;6.25;;;13.60;99.90;;;;;;5072780;28;20049;-60
2023/10/18 10:46:53;;;;;;;9.32;6.22;;;13.60;99.90;;;;;;5072149;28;20127;-61
2023/10/18 10:49:20;;;;;;;14.98;6.68;;;13.70;99.90;;;;;;5072260;28;20494;-57
2023/10/18 10:51:49;;;;;;;12.20;6.35;;;13.70;99.90;;;;;;5069687;28;20048;-60
2023/10/18 10:54:16;;;;;;;11.43;6.40;;;13.70;99.90;;;;;;5072393;28;20037;-61
2023/10/18 10:56:49;;;;;;;12.13;6.40;;;13.80;99.90;;;;;;5072105;28;20039;-57
2023/10/18 10:59:17;;;;;;;12.98;6.15;;;13.80;99.90;;;;;;5072309;28;20547;-59
2023/10/18 11:01:57;;;;;;;11.32;6.50;;;13.90;99.90;;;;;;5071975;28;20036;-59
2023/10/18 11:04:24;;;;;;;10.90;6.00;;;13.90;99.90;;;;;;5072641;28;20434;-58
2023/10/18 11:06:56;;;;;;;11.65;6.10;;;13.90;99.90;;;;;;5072265;28;20525;-59
2023/10/18 11:09:24;;;;;;;11.77;6.10;;;13.90;99.90;;;;;;5073546;28;20044;-59
2023/10/18 11:11:54;;;;;;;8.23;5.93;;;13.80;99.90;;;;;;5072561;28;20044;-56
2023/10/18 11:14:22;;;;;;;10.55;5.63;;;13.90;99.90;;;;;;5072228;28;20059;-58
2023/10/18 11:16:53;;;;;;;10.93;5.88;;;13.90;99.90;;;;;;5072152;28;20098;-59
2023/10/18 11:19:28;;;;;;;11.75;6.20;;;13.90;99.90;;;;;;5073571;28;20041;-58
2023/10/18 11:21:58;;;;;;;10.75;6.13;;;14.00;99.90;;;;;;5076157;28;20406;-57
2023/10/18 11:24:27;;;;;;;12.77;6.03;;;14.00;99.90;;;;;;5076054;28;20433;-57
2023/10/18 11:26:55;;;;;;;10.63;6.10;;;14.00;99.90;;;;;;5075879;28;20120;-59
2023/10/18 11:29:24;;;;;;;10.52;6.05;;;14.00;99.90;;;;;;5075565;28;20082;-60
2023/10/18 11:31:55;;;;;;;16.98;5.80;;;14.00;99.90;;;;;;5075659;28;20058;-60
2023/10/18 11:34:22;;;;;;;9.20;5.68;;;14.00;99.90;;;;;;5075713;28;20068;-63
2023/10/18 11:36:49;;;;;;;10.77;6.40;;;14.10;99.90;;;;;;5075662;28;20043;-55
2023/10/18 11:41:44;;;;;;;10.48;5.82;;;14.10;99.90;;;;;;5075718;28;20119;-61
2023/10/18 11:44:14;;;;;;;9.73;5.63;;;14.10;99.90;;;;;;5075638;28;20479;-62
2023/10/18 11:46:42;;;;;;;8.00;5.82;;;14.10;99.90;;;;;;5074128;28;20505;-54
2023/10/18 11:49:12;;;;;;;10.30;5.47;;;14.20;99.90;;;;;;5075258;28;20089;-62
2023/10/18 11:51:39;;;;;;;12.88;5.60;;;14.20;99.90;;;;;;5076949;28;20036;-64
2023/10/18 11:54:10;;;;;;;9.50;5.38;;;14.30;99.90;;;;;;5075525;28;20052;-59
2023/10/18 11:56:37;;;;;;;9.40;5.80;;;14.30;99.90;;;;;;5075574;28;20040;-58
2023/10/18 11:59:05;;;;;;;11.88;6.05;;;14.30;99.90;;;;;;5074429;28;20036;-61
2023/10/18 12:01:35;;;;;;;10.30;6.25;;;14.30;99.90;;;;;;5075272;28;20044;-57
2023/10/18 12:04:06;;;;;;;11.88;5.75;;;14.30;99.90;;;;;;5075469;28;20048;-57
2023/10/18 12:06:34;;;;;;;8.45;5.88;;;14.30;99.90;;;;;;5075245;28;20048;-56
2023/10/18 12:11:41;;;;;;;9.63;5.63;;;14.40;99.90;;;;;;5075320;28;20379;-60
2023/10/18 12:14:08;;;;;;;8.38;5.47;;;14.40;99.90;;;;;;5074965;28;20041;-57
2023/10/18 12:16:35;;;;;;;8.35;6.00;;;14.50;99.90;;;;;;5075237;28;20040;-59
2023/10/18 12:19:03;;;;;;;10.63;5.95;;;14.50;99.90;;;;;;5074799;28;20047;-60
2023/10/18 12:21:30;;;;;;;13.23;5.78;;;14.50;99.90;;;;;;5074968;28;20037;-62
2023/10/18 12:23:57;;;;;;;11.98;5.80;;;14.60;99.90;;;;;;5076555;28;20120;-58
2023/10/18 12:26:24;;;;;;;9.63;5.72;;;14.50;99.90;;;;;;5068551;28;20536;-59
2023/10/18 12:28:58;;;;;;;11.73;5.75;;;14.50;99.90;;;;;;5073819;28;20048;-59
2023/10/18 12:31:28;;;;;;;8.93;5.82;;;14.50;99.90;;;;;;5072901;28;20487;-62
2023/10/18 12:33:59;;;;;;;12.02;5.65;;;14.40;99.90;;;;;;5074098;28;20045;-57
2023/10/18 12:36:33;;;;;;;15.48;6.00;;;14.30;99.90;;;;;;5079148;28;20032;-59
2023/10/18 12:39:00;;;;;;;13.30;6.22;;;14.30;99.90;;;;;;5074516;28;20043;-62
2023/10/18 12:41:31;;;;;;;14.65;6.82;;;14.30;99.90;;;;;;5075407;28;20508;-62
2023/10/18 12:43:59;;;;;;;12.15;5.97;;;14.20;99.90;;;;;;5074202;28;20351;-62
2023/10/18 12:46:26;;;;;;;14.50;6.13;;;14.20;99.90;;;;;;5074367;28;20040;-58
2023/10/18 12:48:54;;;;;;;11.45;6.00;;;14.10;99.90;;;;;;5077382;28;20072;-54
2023/10/18 12:51:30;;;;;;;12.75;6.97;;;14.10;99.90;;;;;;5074365;28;20102;-58
2023/10/18 12:53:57;;;;;;;10.32;5.97;;;14.10;99.90;;;;;;5072197;28;20044;-58
2023/10/18 13:01:32;;;;;;;9.40;5.65;;;14.00;99.90;;;;;;5074128;28;20050;-59
2023/10/18 13:03:59;;;;;;;11.02;6.32;;;14.00;99.90;;;;;;5074390;28;20044;-61
2023/10/18 13:06:42;;;;;;;13.38;6.25;;;14.00;99.90;;;;;;5072815;28;20063;-61
2023/10/18 13:09:15;;;;;;;12.13;6.18;;;14.00;99.90;;;;;;5072881;28;20725;-57
2023/10/18 13:14:23;;;;;;;10.02;6.10;;;13.90;99.90;;;;;;5073497;28;20463;-57
2023/10/18 13:16:56;;;;;;;10.75;5.85;;;13.90;99.90;;;;;;5073821;28;20052;-61
2023/10/18 13:19:27;;;;;;;15.38;6.55;;;13.80;99.90;;;;;;5073711;28;20523;-54
2023/10/18 13:21:55;;;;;;;13.13;6.45;;;13.80;99.90;;;;;;5073708;28;20044;-52
2023/10/18 13:26:59;;;;;;;12.63;6.80;;;13.70;99.90;;;;;;5073508;28;20441;-58
2023/10/18 13:32:06;;;;;;;14.00;7.45;;;13.60;99.90;;;;;;5073143;28;20040;-59
2023/10/18 13:34:37;;;;;;;15.77;6.40;;;13.60;99.90;;;;;;5068430;28;20064;-59
2023/10/18 13:37:10;;;;;;;13.38;6.80;;;13.50;99.90;;;;;;5073633;28;20036;-59
2023/10/18 13:39:42;;;;;;;15.68;7.40;;;13.50;99.90;;;;;;5073150;28;20028;-58
2023/10/18 13:42:11;;;;;;;13.57;6.53;;;13.40;99.90;;;;;;5073003;28;20036;-60
2023/10/18 13:44:41;;;;;;;14.23;7.05;;;13.40;99.90;;;;;;5073218;28;20066;-58
2023/10/18 13:47:11;;;;;;;11.90;7.00;;;13.30;99.90;;;;;;5073314;28;20044;-61
2023/10/18 13:49:40;;;;;;;16.67;6.78;;;13.30;99.90;;;;;;5079772;28;20040;-61
2023/10/18 13:52:07;;;;;;;12.07;7.45;;;13.30;99.90;;;;;;5073117;28;20513;-55
2023/10/18 13:54:35;;;;;;;15.90;7.05;;;13.20;99.90;;;;;;5074765;28;20040;-60
2023/10/18 13:57:02;;;;;;;14.73;7.50;;;13.20;99.90;;;;;;5075224;28;20155;-59
2023/10/18 13:59:29;;;;;;;15.68;7.70;;;13.10;99.90;;;;;;5073734;28;20033;-57
2023/10/18 14:01:57;;;;;;;15.70;7.55;;;13.10;99.90;;;;;;5072720;28;20101;-58
2023/10/18 14:04:28;;;;;;;13.65;7.18;;;13.00;99.90;;;;;;5076543;28;20380;-56
2023/10/18 14:07:00;;;;;;;11.40;7.65;;;13.00;99.90;;;;;;5072951;28;20040;-61
2023/10/18 14:09:33;;;;;;;15.02;7.47;;;13.00;99.90;;;;;;5066568;28;20040;-56
2023/10/18 14:12:01;;;;;;;12.80;7.57;;;12.90;99.90;;;;;;5073098;28;20044;-61
2023/10/18 14:14:31;;;;;;;11.70;7.25;;;12.90;99.90;;;;;;5072968;28;20147;-60
2023/10/18 14:16:59;;;;;;;14.15;7.68;;;12.90;99.90;;;;;;5072865;28;20044;-62
2023/10/18 14:19:29;;;;;;;11.75;7.30;;;12.90;99.90;;;;;;5066851;28;20108;-57
2023/10/18 14:21:57;;;;;;;13.70;7.68;;;12.90;99.90;;;;;;5067104;28;20419;-54
2023/10/18 14:24:28;;;;;;;12.70;7.30;;;12.90;99.90;;;;;;5073226;28;20101;-60
2023/10/18 14:26:56;;;;;;;8.48;6.95;;;12.90;99.90;;;;;;5072896;28;20042;-56
2023/10/18 14:29:25;;;;;;;13.75;7.40;;;12.80;99.90;;;;;;5073308;28;20071;-57
2023/10/18 14:31:52;;;;;;;15.98;7.47;;;12.80;99.90;;;;;;5072774;28;20401;-60
2023/10/18 14:34:22;;;;;;;12.88;7.45;;;12.80;99.90;;;;;;5073152;28;20394;-62
2023/10/18 14:36:50;;;;;;;21.35;10.00;;;12.80;99.90;;;;;;5072776;28;20040;-58
2023/10/18 14:39:21;;;;;;;17.75;8.70;;;12.80;99.90;;;;;;5073185;28;20429;-59
2023/10/18 14:42:06;;;;;;;12.38;7.70;;;12.80;99.90;;;;;;5075375;28;20384;-59
2023/10/18 14:44:34;;;;;;;11.55;7.82;;;12.90;99.90;;;;;;5072832;28;20040;-59
2023/10/18 14:47:02;;;;;;;12.95;8.20;;;12.90;99.90;;;;;;5072671;28;20139;-56
2023/10/18 14:49:31;;;;;;;15.70;8.30;;;12.90;99.90;;;;;;5071952;28;20040;-61
2023/10/18 14:51:59;;;;;;;15.73;8.00;;;12.90;99.90;;;;;;5072811;28;20127;-58
2023/10/18 14:54:26;;;;;;;14.10;7.50;;;12.90;99.90;;;;;;5077688;28;20064;-55
2023/10/18 14:56:53;;;;;;;15.45;8.45;;;12.90;99.90;;;;;;5078359;28;20056;-62
2023/10/18 14:59:21;;;;;;;14.15;8.18;;;12.90;99.90;;;;;;5076025;28;20076;-55
2023/10/18 15:01:48;;;;;;;14.13;7.72;;;13.00;99.90;;;;;;5078224;28;20112;-60
2023/10/18 15:04:15;;;;;;;14.48;7.85;;;12.90;99.90;;;;;;5076722;28;20465;-59
2023/10/18 15:06:42;;;;;;;12.38;7.30;;;13.00;99.90;;;;;;5080333;28;20040;-62
2023/10/18 15:09:10;;;;;;;15.45;8.27;;;12.90;99.90;;;;;;5076537;28;20127;-56
2023/10/18 15:11:38;;;;;;;14.02;8.40;;;12.90;99.90;;;;;;5077863;28;20041;-58
2023/10/18 15:14:07;;;;;;;13.35;7.97;;;12.90;99.90;;;;;;5076216;28;20051;-58
2023/10/18 15:16:34;;;;;;;10.82;7.78;;;12.90;99.90;;;;;;5079036;28;20067;-56
2023/10/18 15:19:03;;;;;;;13.27;8.00;;;12.90;99.90;;;;;;5078342;28;20044;-57
2023/10/18 15:21:31;;;;;;;13.52;8.15;;;12.90;99.90;;;;;;5076539;28;20067;-61
2023/10/18 15:23:58;;;;;;;14.13;8.25;;;12.90;99.90;;;;;;5076275;28;20044;-61
2023/10/18 15:26:26;;;;;;;13.32;7.85;;;12.80;99.90;;;;;;5078311;28;20087;-60
2023/10/18 15:28:53;;;;;;;15.35;8.50;;;12.80;99.90;;;;;;5076464;28;20037;-56
2023/10/18 15:31:21;;;;;;;12.23;8.13;;;12.80;99.90;;;;;;5078743;28;20036;-60
2023/10/18 15:33:48;;;;;;;15.70;8.85;;;12.80;99.90;;;;;;5076290;28;20135;-62
2023/10/18 15:36:15;;;;;;;14.07;8.77;;;12.80;99.90;;;;;;5075648;28;20678;-60
2023/10/18 15:38:45;;;;;;;13.23;8.57;;;12.80;99.90;;;;;;5079210;28;20040;-61
2023/10/18 15:41:12;;;;;;;12.88;8.48;;;12.80;99.90;;;;;;5075839;28;20090;-62
2023/10/18 15:43:43;;;;;;;14.48;8.57;;;12.80;99.90;;;;;;5076201;28;20040;-59
2023/10/18 15:46:10;;;;;;;14.45;8.95;;;12.80;99.90;;;;;;5076057;28;20075;-63
2023/10/18 15:48:38;;;;;;;15.95;8.75;;;12.80;99.90;;;;;;5075631;28;20094;-59
2023/10/18 15:51:06;;;;;;;14.50;9.18;;;12.80;99.90;;;;;;5075874;28;20041;-60
2023/10/18 15:53:33;;;;;;;13.20;9.02;;;12.80;99.90;;;;;;5075612;28;20045;-56
2023/10/18 15:56:21;;;;;;;;;;;12.80;99.90;;;;;;5081275;28;20051;-61
2023/10/18 15:58:48;;;;;;;11.13;8.43;;;12.80;99.90;;;;;;5069562;28;19921;-62
2023/10/18 16:01:16;;;;;;;14.23;8.15;;;12.80;99.90;;;;;;5075990;28;20380;-58
2023/10/18 16:03:50;;;;;;;14.38;8.77;;;12.80;99.90;;;;;;5080212;28;20036;-60
2023/10/18 16:06:17;;;;;;;14.35;8.02;;;12.90;99.90;;;;;;5075089;28;20135;-60
2023/10/18 16:08:46;;;;;;;11.55;8.18;;;12.90;99.90;;;;;;5080313;28;20041;-58
2023/10/18 16:11:13;;;;;;;12.15;8.45;;;12.90;99.90;;;;;;5075562;28;20392;-62
2023/10/18 16:13:40;;;;;;;12.82;8.43;;;12.90;99.90;;;;;;5076703;28;20068;-64
2023/10/18 16:16:09;;;;;;;11.50;8.13;;;12.90;99.90;;;;;;5074809;28;20040;-62
2023/10/18 16:18:36;;;;;;;9.77;7.75;;;13.00;99.90;;;;;;5074523;28;20033;-58
2023/10/18 16:21:04;;;;;;;10.52;7.28;;;12.90;99.90;;;;;;5075123;28;20036;-58
2023/10/18 16:23:31;;;;;;;10.18;7.40;;;13.00;99.90;;;;;;5074998;28;20036;-59
2023/10/18 16:25:58;;;;;;;8.35;6.78;;;12.90;99.90;;;;;;5075033;28;20162;-60
2023/10/18 16:28:25;;;;;;;12.40;7.95;;;13.00;99.90;;;;;;5073749;28;20071;-55
2023/10/18 16:30:54;;;;;;;9.60;7.35;;;13.00;99.90;;;;;;5074035;28;20137;-62
2023/10/18 16:33:24;;;;;;;8.32;6.43;;;13.00;99.90;;;;;;5074373;28;20136;-59
2023/10/18 16:35:51;;;;;;;9.93;6.55;;;13.00;99.90;;;;;;5077729;28;20050;-62
2023/10/18 16:38:18;;;;;;;8.32;6.90;;;13.10;99.90;;;;;;5075111;28;20032;-60
2023/10/18 16:40:45;;;;;;;7.05;6.28;;;13.10;99.90;;;;;;5074984;28;20526;-60
2023/10/18 16:43:12;;;;;;;8.13;6.72;;;13.10;99.90;;;;;;5079038;28;20041;-59
2023/10/18 16:45:44;;;;;;;8.00;6.00;;;13.10;99.90;;;;;;5074876;28;20082;-60
2023/10/18 16:48:11;;;;;;;7.55;6.13;;;13.10;99.90;;;;;;5075199;28;20124;-62
2023/10/18 16:50:38;;;;;;;8.05;6.20;;;13.20;99.90;;;;;;5074786;28;20584;-58
2023/10/18 16:53:05;;;;;;;9.27;6.57;;;13.20;99.90;;;;;;5074273;28;20041;-60
2023/10/18 16:55:34;;;;;;;6.88;5.68;;;13.20;99.90;;;;;;5074710;28;20043;-61
2023/10/18 16:58:03;;;;;;;6.68;5.60;;;13.30;99.90;;;;;;5075570;28;20040;-61
2023/10/18 17:00:31;;;;;;;7.15;4.80;;;13.30;99.90;;;;;;5074024;28;20048;-59
2023/10/18 17:02:58;;;;;;;6.65;5.20;;;13.30;99.90;;;;;;5075058;28;20410;-61
2023/10/18 17:05:27;;;;;;;7.00;4.68;;;13.40;99.90;;;;;;5075559;28;20098;-58
2023/10/18 17:07:56;;;;;;;5.40;4.10;;;13.40;99.90;;;;;;5074501;28;20049;-59
2023/10/18 17:10:23;;;;;;;3.47;2.90;;;13.50;99.90;;;;;;5074015;28;20040;-61
2023/10/18 17:12:51;;;;;;;3.17;2.10;;;13.50;99.90;;;;;;5074109;28;20115;-60
2023/10/18 17:15:18;;;;;;;3.20;2.00;;;13.60;99.90;;;;;;5079146;28;20043;-59
2023/10/18 17:17:45;;;;;;;2.83;1.92;;;13.70;99.90;;;;;;5073442;28;20032;-58
2023/10/18 17:20:15;;;;;;;2.30;1.80;;;13.80;99.90;;;;;;5074182;28;20103;-62
2023/10/18 17:22:42;;;;;;;2.90;1.20;;;13.90;99.90;;;;;;5076747;28;20090;-60
2023/10/18 17:25:09;;;;;;;1.77;1.10;;;13.90;99.90;;;;;;5074139;28;20044;-61
2023/10/18 17:27:36;;;;;;;2.20;1.20;;;14.00;99.90;;;;;;5078718;28;20075;-59
2023/10/18 17:30:03;;;;;;;2.90;1.98;;;14.10;99.90;;;;;;5074094;28;20490;-57
2023/10/18 17:32:31;;;;;;;1.95;1.20;;;14.10;99.90;;;;;;5073745;28;20076;-61
2023/10/18 17:34:59;;;;;;;2.03;1.30;;;14.10;99.90;;;;;;5079789;28;20033;-62
2023/10/18 17:37:27;;;;;;;2.50;1.55;;;14.20;99.90;;;;;;5073964;28;20347;-60